Time;durP1;ratioP1;P1;durP2;ratioP2;P2;SDS_P1;SDS_P2;PMS_P1;PMS_P2;Temp;Humidity;BMP_temperature;BMP_pressure;BME280_temperature;BME280_humidity;BME280_pressure;Samples;Min_cycle;Max_cycle;Signal;HPM_P1;HPM_P2
2022/01/13 00:00:17;;;;;;;21.88;16.27;;;14.60;46.00;;;;;;5114463;28;20024;-57
2022/01/13 00:02:43;;;;;;;22.52;15.68;;;14.60;45.90;;;;;;5115565;28;20390;-57
2022/01/13 00:05:10;;;;;;;20.35;14.82;;;14.70;45.80;;;;;;5115548;28;20015;-58
2022/01/13 00:07:36;;;;;;;24.33;15.40;;;14.70;45.60;;;;;;5115569;28;20035;-57
2022/01/13 00:10:03;;;;;;;20.25;15.68;;;14.80;45.50;;;;;;5115973;28;20143;-58
2022/01/13 00:12:35;;;;;;;21.17;14.82;;;14.80;45.50;;;;;;5114287;28;20019;-57
2022/01/13 00:17:55;;;;;;;20.77;13.40;;;14.80;45.30;;;;;;5115526;28;19904;-57
2022/01/13 00:20:31;;;;;;;20.67;15.30;;;14.80;45.20;;;;;;5115006;28;20367;-57
2022/01/13 00:25:42;;;;;;;19.25;14.10;;;14.80;45.20;;;;;;5115421;28;20459;-57
2022/01/13 00:28:16;;;;;;;21.00;15.02;;;14.70;45.20;;;;;;5115014;28;20047;-57
2022/01/13 00:30:43;;;;;;;17.95;13.73;;;14.70;45.20;;;;;;5115446;28;20023;-57
2022/01/13 00:33:11;;;;;;;19.30;14.18;;;14.80;45.20;;;;;;5115597;28;20023;-57
2022/01/13 00:35:37;;;;;;;20.00;14.38;;;14.70;45.20;;;;;;5115095;28;20041;-57
2022/01/13 00:38:03;;;;;;;20.02;13.82;;;14.70;45.20;;;;;;5114787;28;20008;-57
2022/01/13 00:40:29;;;;;;;20.23;13.38;;;14.70;45.20;;;;;;5114180;28;20016;-56
2022/01/13 00:42:56;;;;;;;19.38;13.52;;;14.70;45.20;;;;;;5113887;28;20087;-56
2022/01/13 00:45:22;;;;;;;18.75;13.55;;;14.70;45.10;;;;;;5114914;28;20029;-57
2022/01/13 00:47:48;;;;;;;21.58;14.18;;;14.70;45.20;;;;;;5114709;28;20051;-57
2022/01/13 00:50:14;;;;;;;17.00;13.45;;;14.70;45.10;;;;;;5114879;28;20480;-55
2022/01/13 00:52:41;;;;;;;18.77;14.15;;;14.70;45.10;;;;;;5115200;28;20012;-57
2022/01/13 00:55:10;;;;;;;20.90;14.48;;;14.70;45.10;;;;;;5119484;28;20024;-57
2022/01/13 00:57:36;;;;;;;17.52;12.77;;;14.70;45.10;;;;;;5119533;28;20096;-56
2022/01/13 01:00:02;;;;;;;18.45;14.57;;;14.60;45.10;;;;;;5118932;28;20020;-57
2022/01/13 01:02:28;;;;;;;18.52;13.52;;;14.60;45.10;;;;;;5119072;28;20034;-57
2022/01/13 01:04:54;;;;;;;17.63;14.02;;;14.60;45.10;;;;;;5119004;28;20028;-56
2022/01/13 01:07:20;;;;;;;17.02;13.38;;;14.60;45.10;;;;;;5118411;28;20043;-55
2022/01/13 01:09:49;;;;;;;19.85;14.55;;;14.60;45.10;;;;;;5118467;28;20018;-57
2022/01/13 01:12:15;;;;;;;18.05;14.35;;;14.60;45.10;;;;;;5119479;28;20020;-56
2022/01/13 01:14:47;;;;;;;18.52;13.25;;;14.60;45.00;;;;;;5118735;28;20020;-57
2022/01/13 01:17:15;;;;;;;;;;;14.60;45.10;;;;;;5119292;28;20035;-57
2022/01/13 01:19:44;;;;;;;17.48;14.18;;;14.60;45.10;;;;;;5118446;28;19899;-57
2022/01/13 01:22:56;;;;;;;17.35;13.07;;;14.60;45.00;;;;;;5119127;28;20019;-57
2022/01/13 01:27:39;;;;;;;19.55;13.80;;;14.50;45.00;;;;;;5119121;28;20091;-57
2022/01/13 01:30:09;;;;;;;14.98;12.82;;;14.50;45.10;;;;;;5119305;28;20012;-57
2022/01/13 01:32:37;;;;;;;16.55;13.98;;;14.60;45.10;;;;;;5118229;28;20046;-57
2022/01/13 01:35:12;;;;;;;17.17;13.40;;;14.50;45.10;;;;;;5118474;28;20016;-57
2022/01/13 01:37:39;;;;;;;20.20;13.52;;;14.50;45.00;;;;;;5117141;28;20079;-58
2022/01/13 01:40:06;;;;;;;19.75;14.23;;;14.50;45.10;;;;;;5117454;28;20023;-57
2022/01/13 01:42:31;;;;;;;16.42;13.35;;;14.50;45.00;;;;;;5117746;28;20030;-57
2022/01/13 01:44:59;;;;;;;17.77;13.23;;;14.50;45.00;;;;;;5118500;28;20437;-57
2022/01/13 01:47:27;;;;;;;17.10;13.02;;;14.50;45.00;;;;;;5117163;28;20478;-57
2022/01/13 01:49:55;;;;;;;19.73;13.43;;;14.50;45.00;;;;;;5118466;28;20473;-58
2022/01/13 01:52:21;;;;;;;17.70;13.43;;;14.50;45.00;;;;;;5118626;28;20019;-56
2022/01/13 01:54:56;;;;;;;18.05;13.48;;;14.50;45.00;;;;;;5116625;28;20019;-57
2022/01/13 01:57:22;;;;;;;15.82;13.20;;;14.50;45.00;;;;;;5116804;28;20008;-57
2022/01/13 01:59:49;;;;;;;16.98;12.73;;;14.50;45.00;;;;;;5117811;28;20470;-57
2022/01/13 02:02:15;;;;;;;16.52;12.77;;;14.50;45.00;;;;;;5117979;28;20160;-57
2022/01/13 02:04:42;;;;;;;19.58;12.77;;;14.50;45.00;;;;;;5118968;28;20027;-57
2022/01/13 02:07:09;;;;;;;15.82;12.60;;;14.50;45.00;;;;;;5119438;28;20026;-57
2022/01/13 02:09:36;;;;;;;16.52;12.63;;;14.40;45.00;;;;;;5119114;28;20059;-57
2022/01/13 02:12:09;;;;;;;17.25;12.77;;;14.50;45.00;;;;;;5118992;28;20026;-57
2022/01/13 02:14:47;;;;;;;21.08;12.93;;;14.50;44.90;;;;;;5117979;28;20057;-57
2022/01/13 02:17:21;;;;;;;16.13;13.05;;;14.40;45.00;;;;;;5117688;28;20052;-57
2022/01/13 02:19:47;;;;;;;16.27;12.27;;;14.40;45.10;;;;;;5117460;28;20023;-56
2022/01/13 02:22:13;;;;;;;17.33;13.10;;;14.40;45.10;;;;;;5099093;28;20031;-57
2022/01/13 02:24:39;;;;;;;17.38;13.70;;;14.30;45.80;;;;;;5116829;28;20389;-57
2022/01/13 02:27:06;;;;;;;14.95;13.10;;;14.30;45.20;;;;;;5117677;28;20050;-57
2022/01/13 02:29:32;;;;;;;17.08;12.88;;;14.30;45.20;;;;;;5117428;28;20095;-57
2022/01/13 02:31:58;;;;;;;18.13;12.82;;;14.30;45.20;;;;;;5116699;28;20107;-57
2022/01/13 02:34:23;;;;;;;15.07;12.50;;;14.30;45.20;;;;;;5115447;28;20069;-57
2022/01/13 02:36:52;;;;;;;17.13;13.40;;;14.30;45.20;;;;;;5117292;28;20023;-56
2022/01/13 02:39:20;;;;;;;17.95;13.70;;;14.30;45.10;;;;;;5115769;28;20053;-57
2022/01/13 02:41:46;;;;;;;16.10;13.13;;;14.30;45.10;;;;;;5117034;28;20076;-57
2022/01/13 02:44:16;;;;;;;15.90;12.20;;;14.30;45.10;;;;;;5116627;28;20046;-57
2022/01/13 02:49:09;;;;;;;14.07;12.20;;;14.30;45.10;;;;;;5116542;28;20024;-57
2022/01/13 02:51:35;;;;;;;18.35;12.35;;;14.30;45.10;;;;;;5116294;28;20103;-56
2022/01/13 02:54:02;;;;;;;16.90;13.00;;;14.30;45.00;;;;;;5116194;28;20049;-57
2022/01/13 02:56:28;;;;;;;16.70;12.10;;;14.30;45.00;;;;;;5115855;28;20020;-57
2022/01/13 02:58:53;;;;;;;13.73;11.65;;;14.30;45.00;;;;;;5115757;28;20026;-57
2022/01/13 03:01:19;;;;;;;14.45;11.93;;;14.30;44.90;;;;;;5115620;28;20031;-57
2022/01/13 03:03:46;;;;;;;17.25;12.32;;;14.20;44.90;;;;;;5114833;28;20480;-57
2022/01/13 03:06:13;;;;;;;14.60;11.73;;;14.20;44.90;;;;;;5115640;28;20106;-57
2022/01/13 03:08:42;;;;;;;14.27;11.57;;;14.20;44.90;;;;;;5115517;28;20036;-57
2022/01/13 03:11:10;;;;;;;13.95;10.98;;;14.20;45.00;;;;;;5115990;28;20030;-57
2022/01/13 03:13:35;;;;;;;15.80;11.82;;;14.20;45.00;;;;;;5115351;28;20026;-57
2022/01/13 03:16:08;;;;;;;15.57;11.82;;;14.20;45.00;;;;;;5115348;28;20096;-57
2022/01/13 03:18:35;;;;;;;13.48;10.98;;;14.20;45.00;;;;;;5115834;28;20493;-57
2022/01/13 03:21:00;;;;;;;15.95;11.05;;;14.20;44.90;;;;;;5115696;28;20024;-57
2022/01/13 03:23:26;;;;;;;16.23;12.40;;;14.20;45.00;;;;;;5115186;28;20373;-58
2022/01/13 03:25:53;;;;;;;13.90;10.73;;;14.20;44.90;;;;;;5115987;28;20023;-57
2022/01/13 03:28:29;;;;;;;15.30;12.10;;;14.20;44.90;;;;;;5114422;28;20015;-57
2022/01/13 03:30:55;;;;;;;13.38;11.20;;;14.20;44.90;;;;;;5116190;28;20119;-56
2022/01/13 03:33:21;;;;;;;13.45;11.32;;;14.20;44.80;;;;;;5116186;28;20020;-57
2022/01/13 03:35:47;;;;;;;13.80;10.85;;;14.20;44.80;;;;;;5116009;28;20012;-58
2022/01/13 03:38:13;;;;;;;12.13;10.82;;;14.20;44.80;;;;;;5115283;28;20023;-57
2022/01/13 03:40:39;;;;;;;13.70;11.18;;;14.20;44.80;;;;;;5115365;28;20012;-56
2022/01/13 03:43:05;;;;;;;15.30;11.50;;;14.30;44.70;;;;;;5114259;28;20027;-56
2022/01/13 03:45:32;;;;;;;15.68;11.20;;;14.20;44.80;;;;;;5114305;28;20524;-57
2022/01/13 03:47:58;;;;;;;13.10;10.93;;;14.20;44.80;;;;;;5116075;28;20015;-57
2022/01/13 03:50:25;;;;;;;14.38;11.05;;;14.20;44.70;;;;;;5116278;28;20020;-57
2022/01/13 03:53:02;;;;;;;12.50;10.90;;;14.30;44.60;;;;;;5115064;28;20366;-58
2022/01/13 03:55:38;;;;;;;14.30;11.07;;;14.40;44.50;;;;;;5116072;28;20095;-57
2022/01/13 03:58:41;;;;;;;12.13;10.63;;;14.40;44.20;;;;;;5115737;28;20107;-57
2022/01/13 04:01:40;;;;;;;11.75;10.30;;;14.60;44.10;;;;;;5115319;28;20039;-57
2022/01/13 04:04:06;;;;;;;13.00;10.27;;;14.80;43.60;;;;;;5115649;28;20019;-57
2022/01/13 04:06:39;;;;;;;12.50;9.93;;;14.90;43.20;;;;;;5116023;28;20028;-59
2022/01/13 04:09:29;;;;;;;13.43;10.65;;;15.00;43.00;;;;;;5116821;28;20122;-58
2022/01/13 04:11:54;;;;;;;12.50;11.20;;;15.10;42.80;;;;;;5085183;28;20024;-58
2022/01/13 04:14:28;;;;;;;12.60;9.93;;;15.20;42.60;;;;;;5115580;28;20035;-58
2022/01/13 04:16:54;;;;;;;12.07;9.75;;;15.20;42.40;;;;;;5115639;28;20035;-56
2022/01/13 04:19:20;;;;;;;14.88;10.35;;;15.30;42.30;;;;;;5115702;28;20020;-59
2022/01/13 04:21:46;;;;;;;10.65;9.55;;;15.40;42.00;;;;;;5114754;28;20508;-58
2022/01/13 04:24:12;;;;;;;10.55;9.45;;;15.50;41.80;;;;;;5114985;28;20024;-58
2022/01/13 04:26:43;;;;;;;11.32;9.68;;;15.60;41.70;;;;;;5114957;28;20014;-57
2022/01/13 04:31:38;;;;;;;11.50;9.35;;;15.70;41.50;;;;;;5115012;28;20031;-57
2022/01/13 04:34:04;;;;;;;11.40;10.05;;;15.80;41.30;;;;;;5114943;28;20016;-58
2022/01/13 04:36:31;;;;;;;13.05;9.93;;;15.80;41.20;;;;;;5115334;28;20023;-56
2022/01/13 04:38:56;;;;;;;11.68;9.43;;;15.80;41.20;;;;;;5115188;28;20440;-57
2022/01/13 04:41:33;;;;;;;12.80;9.60;;;15.80;41.10;;;;;;5115095;28;20103;-57
2022/01/13 04:43:59;;;;;;;10.85;8.98;;;15.90;41.10;;;;;;5115095;28;20015;-58
2022/01/13 04:46:24;;;;;;;13.98;9.75;;;15.90;40.90;;;;;;5115334;28;20034;-58
2022/01/13 04:48:51;;;;;;;12.77;9.68;;;16.00;40.70;;;;;;5115054;28;20032;-58
2022/01/13 04:51:16;;;;;;;10.98;9.25;;;16.10;40.70;;;;;;5113759;28;20596;-59
2022/01/13 04:53:42;;;;;;;10.98;8.98;;;16.20;40.70;;;;;;5115130;28;20089;-58
2022/01/13 04:56:13;;;;;;;11.18;9.80;;;16.20;40.40;;;;;;5115477;28;20024;-57
2022/01/13 04:58:38;;;;;;;10.93;9.80;;;16.30;40.40;;;;;;5115174;28;20020;-57
2022/01/13 05:01:05;;;;;;;11.43;9.52;;;16.30;40.30;;;;;;5115454;28;20023;-61
2022/01/13 05:03:31;;;;;;;12.05;9.13;;;16.30;40.20;;;;;;5115677;28;20079;-59
2022/01/13 05:05:57;;;;;;;12.27;9.90;;;16.40;40.00;;;;;;5115254;28;20039;-60
2022/01/13 05:08:23;;;;;;;10.65;8.82;;;16.50;39.80;;;;;;5113483;28;20038;-60
2022/01/13 05:10:49;;;;;;;10.55;9.00;;;16.50;39.70;;;;;;5115290;28;20011;-60
2022/01/13 05:13:15;;;;;;;10.18;8.95;;;16.70;39.60;;;;;;5114786;28;20032;-60
2022/01/13 05:15:44;;;;;;;9.98;8.98;;;16.70;39.30;;;;;;5114552;28;20473;-63
2022/01/13 05:23:44;;;;;;;10.82;9.10;;;16.80;39.10;;;;;;5077151;28;20159;-60
2022/01/13 05:26:21;;;;;;;12.02;8.75;;;16.70;38.90;;;;;;5115376;28;20020;-60
2022/01/13 05:28:47;;;;;;;9.68;8.73;;;16.90;39.10;;;;;;5115126;28;20072;-59
2022/01/13 05:31:13;;;;;;;10.00;8.90;;;16.80;39.00;;;;;;5115233;28;20044;-60
2022/01/13 05:33:39;;;;;;;10.27;9.25;;;16.90;38.90;;;;;;5115022;28;20012;-60
2022/01/13 05:36:05;;;;;;;10.73;9.05;;;17.00;38.60;;;;;;5115025;28;20019;-59
2022/01/13 05:38:32;;;;;;;11.55;8.38;;;17.10;38.50;;;;;;5114874;28;20073;-59
2022/01/13 05:40:58;;;;;;;9.73;8.73;;;17.10;38.40;;;;;;5116492;28;20404;-59
2022/01/13 05:43:25;;;;;;;9.32;7.47;;;17.10;38.30;;;;;;5118624;28;20095;-59
2022/01/13 05:45:51;;;;;;;11.30;8.27;;;17.00;38.50;;;;;;5118766;28;20099;-58
2022/01/13 05:48:16;;;;;;;9.02;8.10;;;17.10;38.50;;;;;;5118444;28;20382;-59
2022/01/13 05:50:43;;;;;;;9.15;8.23;;;17.20;38.40;;;;;;5118265;28;20603;-59
2022/01/13 05:53:09;;;;;;;9.32;8.27;;;17.10;38.30;;;;;;5118505;28;20019;-60
2022/01/13 05:55:36;;;;;;;10.77;8.93;;;17.20;38.80;;;;;;5116893;28;20023;-59
2022/01/13 05:58:02;;;;;;;10.70;8.50;;;17.20;38.20;;;;;;5118527;28;20058;-61
2022/01/13 06:00:28;;;;;;;10.20;8.85;;;17.30;38.20;;;;;;5118029;28;20012;-59
2022/01/13 06:02:54;;;;;;;9.77;8.50;;;17.30;38.00;;;;;;5100145;28;20038;-59
2022/01/13 06:05:21;;;;;;;12.35;9.23;;;17.20;38.10;;;;;;5118713;28;20004;-59
2022/01/13 06:07:47;;;;;;;11.60;8.93;;;17.40;38.00;;;;;;5118165;28;20055;-59
2022/01/13 06:10:18;;;;;;;9.77;8.77;;;17.40;37.80;;;;;;5118419;28;20020;-60
2022/01/13 06:12:44;;;;;;;9.82;8.70;;;17.40;37.70;;;;;;5118023;28;20016;-59
2022/01/13 06:15:12;;;;;;;10.75;8.82;;;17.50;37.70;;;;;;5118237;28;20047;-59
2022/01/13 06:17:39;;;;;;;9.82;8.57;;;17.50;37.50;;;;;;5117762;28;20049;-59
2022/01/13 06:20:05;;;;;;;9.98;8.95;;;17.60;37.40;;;;;;5118285;28;20035;-60
2022/01/13 06:22:31;;;;;;;9.57;8.35;;;17.60;37.30;;;;;;5116866;28;20023;-60
2022/01/13 06:24:57;;;;;;;11.13;8.65;;;17.60;37.20;;;;;;5117017;28;20012;-59
2022/01/13 06:27:23;;;;;;;10.82;9.13;;;17.70;37.10;;;;;;5116495;28;20012;-59
2022/01/13 06:29:50;;;;;;;8.85;7.75;;;17.70;37.00;;;;;;5117518;28;20018;-59
2022/01/13 06:32:16;;;;;;;9.70;8.23;;;17.70;37.00;;;;;;5116967;28;20016;-59
2022/01/13 06:34:42;;;;;;;8.65;7.63;;;17.70;37.00;;;;;;5117561;28;20493;-60
2022/01/13 06:37:08;;;;;;;9.48;7.93;;;17.70;36.90;;;;;;5116328;28;20026;-60
2022/01/13 06:39:34;;;;;;;9.27;7.88;;;17.80;36.90;;;;;;5099126;28;20023;-60
2022/01/13 06:42:00;;;;;;;10.30;7.97;;;17.80;36.90;;;;;;5117193;28;20063;-60
2022/01/13 06:44:26;;;;;;;10.73;8.00;;;17.80;36.80;;;;;;5117199;28;20003;-59
2022/01/13 06:46:52;;;;;;;9.35;7.93;;;17.70;36.80;;;;;;5116827;28;20016;-60
2022/01/13 06:49:18;;;;;;;8.52;7.68;;;17.70;36.70;;;;;;5116600;28;20137;-60
2022/01/13 06:51:44;;;;;;;10.02;8.05;;;17.80;36.80;;;;;;5114899;28;20053;-59
2022/01/13 06:54:10;;;;;;;8.80;7.88;;;18.00;36.60;;;;;;5115611;28;20024;-59
2022/01/13 06:56:36;;;;;;;11.70;7.63;;;18.10;36.40;;;;;;5114477;28;20489;-60
2022/01/13 06:59:08;;;;;;;9.05;7.32;;;18.00;36.40;;;;;;5116059;28;20020;-59
2022/01/13 07:01:34;;;;;;;8.68;7.45;;;18.00;36.30;;;;;;5115235;28;20027;-59
2022/01/13 07:04:00;;;;;;;8.05;6.97;;;18.10;36.20;;;;;;5115735;28;20034;-60
2022/01/13 07:06:26;;;;;;;12.13;8.23;;;18.20;36.10;;;;;;5115656;28;20037;-59
2022/01/13 07:08:51;;;;;;;9.43;7.70;;;18.20;36.10;;;;;;5113045;28;20487;-60
2022/01/13 07:11:17;;;;;;;10.02;7.57;;;18.20;35.90;;;;;;5095882;28;20024;-59
2022/01/13 07:13:43;;;;;;;9.60;8.30;;;18.20;35.90;;;;;;5112791;28;20138;-60
2022/01/13 07:16:09;;;;;;;9.52;7.75;;;18.20;36.50;;;;;;5115188;28;20095;-60
2022/01/13 07:18:38;;;;;;;10.30;7.95;;;18.30;35.90;;;;;;5113436;28;20036;-59
2022/01/13 07:21:09;;;;;;;9.05;7.95;;;18.30;35.90;;;;;;5112605;28;20426;-60
2022/01/13 07:23:35;;;;;;;26.38;9.88;;;18.20;35.80;;;;;;5113038;28;20035;-59
2022/01/13 07:26:02;;;;;;;19.83;11.48;;;17.60;37.60;;;;;;5113549;28;20012;-60
2022/01/13 07:28:32;;;;;;;17.23;11.40;;;17.70;39.80;;;;;;5113361;28;20087;-60
2022/01/13 07:31:00;;;;;;;18.88;10.63;;;18.00;41.70;;;;;;5114438;28;20034;-58
2022/01/13 07:33:27;;;;;;;21.65;12.75;;;18.20;41.40;;;;;;5111752;28;20015;-59
2022/01/13 07:35:55;;;;;;;20.90;14.75;;;17.30;41.30;;;;;;5112868;28;20030;-60
2022/01/13 07:38:21;;;;;;;21.80;15.43;;;14.40;43.80;;;;;;5112298;28;20015;-58
2022/01/13 07:40:47;;;;;;;16.55;13.65;;;14.10;48.90;;;;;;5113622;28;20464;-57
2022/01/13 07:43:16;;;;;;;18.65;12.82;;;15.40;47.90;;;;;;5111863;28;20109;-55
2022/01/13 07:45:46;;;;;;;16.02;12.18;;;16.60;46.30;;;;;;5114703;28;20458;-58
2022/01/13 07:48:12;;;;;;;22.33;11.65;;;17.40;44.50;;;;;;5112467;28;20018;-58
2022/01/13 07:50:40;;;;;;;16.38;11.48;;;18.10;43.70;;;;;;5112115;28;20011;-59
2022/01/13 07:53:06;;;;;;;14.85;10.48;;;18.50;42.80;;;;;;5112856;28;20012;-59
2022/01/13 07:55:32;;;;;;;15.73;9.95;;;18.80;42.50;;;;;;5113450;28;20094;-58
2022/01/13 07:57:58;;;;;;;14.20;9.30;;;19.10;42.10;;;;;;5111998;28;20505;-59
2022/01/13 08:00:23;;;;;;;16.60;10.00;;;19.40;41.70;;;;;;5113606;28;20022;-62
2022/01/13 08:02:52;;;;;;;13.02;9.75;;;19.60;41.50;;;;;;5112251;28;20485;-58
2022/01/13 08:05:18;;;;;;;15.23;9.77;;;19.80;41.30;;;;;;5113694;28;20019;-60
2022/01/13 08:07:43;;;;;;;13.00;8.88;;;19.90;40.90;;;;;;5113422;28;20436;-64
2022/01/13 08:10:12;;;;;;;13.38;9.43;;;20.10;41.30;;;;;;5113334;28;20015;-58
2022/01/13 08:12:41;;;;;;;14.88;10.43;;;20.20;41.30;;;;;;5110522;28;20107;-58
2022/01/13 08:15:13;;;;;;;14.13;11.48;;;19.20;40.00;;;;;;5111190;28;20020;-57
2022/01/13 08:20:34;;;;;;;19.35;11.25;;;18.70;39.70;;;;;;5112393;28;20050;-57
2022/01/13 08:23:00;;;;;;;17.73;10.70;;;18.80;40.00;;;;;;5094405;28;20030;-60
2022/01/13 08:25:26;;;;;;;23.35;10.82;;;19.10;39.70;;;;;;5112653;28;20051;-59
2022/01/13 08:27:53;;;;;;;17.60;9.88;;;19.40;39.60;;;;;;5112889;28;20019;-59
2022/01/13 08:30:19;;;;;;;13.07;8.35;;;19.70;39.20;;;;;;5111468;28;20058;-60
2022/01/13 08:32:47;;;;;;;14.75;9.13;;;19.90;39.20;;;;;;5110973;28;20028;-59
2022/01/13 08:35:14;;;;;;;23.02;8.35;;;20.10;39.00;;;;;;5112497;28;20020;-60
2022/01/13 08:37:43;;;;;;;14.68;8.30;;;20.20;38.90;;;;;;5112564;28;20015;-59
2022/01/13 08:40:10;;;;;;;16.08;7.70;;;20.30;38.70;;;;;;5110957;28;20016;-59
2022/01/13 08:42:36;;;;;;;14.70;7.97;;;20.50;39.30;;;;;;5110766;28;20102;-61
2022/01/13 08:45:05;;;;;;;12.32;7.97;;;20.60;38.70;;;;;;5112330;28;20011;-61
2022/01/13 08:47:31;;;;;;;13.73;7.70;;;20.70;38.70;;;;;;5110308;28;20023;-60
2022/01/13 08:50:00;;;;;;;14.57;7.57;;;20.70;38.60;;;;;;5110548;28;20011;-58
2022/01/13 08:52:26;;;;;;;14.40;7.65;;;20.90;38.60;;;;;;5111706;28;20030;-60
2022/01/13 08:54:59;;;;;;;16.38;9.20;;;20.80;37.70;;;;;;5110458;28;20015;-58
2022/01/13 08:57:25;;;;;;;18.30;10.45;;;20.80;36.80;;;;;;5111951;28;20119;-58
2022/01/13 08:59:51;;;;;;;12.73;10.07;;;20.60;36.00;;;;;;5112079;28;20087;-59
2022/01/13 09:02:17;;;;;;;12.48;9.43;;;20.60;35.60;;;;;;5111129;28;20027;-59
2022/01/13 09:04:42;;;;;;;18.08;9.07;;;20.60;35.20;;;;;;5110808;28;20015;-57
2022/01/13 09:07:08;;;;;;;13.90;8.60;;;20.50;35.00;;;;;;5095669;28;20020;-61
2022/01/13 09:09:34;;;;;;;12.40;8.20;;;20.40;35.20;;;;;;5111837;28;20443;-59
2022/01/13 09:12:02;;;;;;;16.60;8.73;;;20.40;35.80;;;;;;5112828;28;20029;-59
2022/01/13 09:14:31;;;;;;;16.08;8.63;;;20.50;35.20;;;;;;5113006;28;20446;-58
2022/01/13 09:16:58;;;;;;;17.92;8.18;;;20.50;35.20;;;;;;5115887;28;20062;-57
2022/01/13 09:19:23;;;;;;;13.57;7.80;;;20.50;35.20;;;;;;5115436;28;20030;-57
2022/01/13 09:21:52;;;;;;;19.08;8.40;;;20.60;35.30;;;;;;5114964;28;20024;-59
2022/01/13 09:24:19;;;;;;;18.27;7.93;;;20.70;35.20;;;;;;5116535;28;20075;-58
2022/01/13 09:26:45;;;;;;;15.50;7.72;;;20.70;35.20;;;;;;5115060;28;20023;-57
2022/01/13 09:29:13;;;;;;;18.58;7.38;;;20.80;35.80;;;;;;5116125;28;20019;-57
2022/01/13 09:31:39;;;;;;;24.27;7.60;;;20.90;35.20;;;;;;5115606;28;20138;-57
2022/01/13 09:34:06;;;;;;;14.90;7.07;;;20.90;35.10;;;;;;5115928;28;20402;-58
2022/01/13 09:36:37;;;;;;;16.63;7.63;;;21.00;35.20;;;;;;5115071;28;20027;-58
2022/01/13 09:39:04;;;;;;;16.58;6.90;;;21.00;35.10;;;;;;5116151;28;20012;-58
2022/01/13 09:41:31;;;;;;;12.63;6.75;;;21.00;35.10;;;;;;5115983;28;20023;-58
2022/01/13 09:44:00;;;;;;;12.32;6.72;;;21.10;35.20;;;;;;5116068;28;20020;-59
2022/01/13 09:46:27;;;;;;;10.88;6.13;;;21.10;35.20;;;;;;5115677;28;20412;-58
2022/01/13 09:48:53;;;;;;;11.18;5.90;;;21.20;35.20;;;;;;5097759;28;20011;-57
2022/01/13 09:51:23;;;;;;;11.27;6.35;;;21.20;35.20;;;;;;5115794;28;20024;-57
2022/01/13 09:53:49;;;;;;;9.48;5.90;;;21.20;35.30;;;;;;5115816;28;20027;-57
2022/01/13 09:56:15;;;;;;;12.65;5.78;;;21.20;35.20;;;;;;5115808;28;20447;-58
2022/01/13 09:58:44;;;;;;;13.98;6.13;;;21.30;35.30;;;;;;5114590;28;20068;-59
2022/01/13 10:01:10;;;;;;;11.43;5.90;;;21.30;35.20;;;;;;5114342;28;20039;-57
2022/01/13 10:03:37;;;;;;;10.23;6.22;;;21.30;35.20;;;;;;5114983;28;20458;-57
2022/01/13 10:06:12;;;;;;;10.57;6.03;;;21.30;35.20;;;;;;5113910;28;20023;-57
2022/01/13 10:08:54;;;;;;;9.70;5.85;;;21.40;35.30;;;;;;5108900;28;20043;-57
2022/01/13 10:11:29;;;;;;;11.90;5.72;;;21.50;35.40;;;;;;5115588;28;20027;-59
2022/01/13 10:16:58;;;;;;;23.60;12.00;;;20.50;35.50;;;;;;5115851;28;20016;-60
2022/01/13 10:19:42;;;;;;;21.77;14.32;;;17.60;37.80;;;;;;5114360;28;20097;-59
2022/01/13 10:22:24;;;;;;;25.65;15.15;;;14.90;43.20;;;;;;5115791;28;20020;-57
2022/01/13 10:24:54;;;;;;;20.33;14.88;;;13.50;46.90;;;;;;5114125;28;20492;-58
2022/01/13 10:27:30;;;;;;;27.15;16.35;;;13.60;47.20;;;;;;5095619;28;20015;-58
2022/01/13 10:29:58;;;;;;;24.42;14.57;;;13.40;48.00;;;;;;5113531;28;20019;-57
2022/01/13 10:32:52;;;;;;;21.55;15.95;;;13.50;47.20;;;;;;5114821;28;20049;-62
2022/01/13 10:35:24;;;;;;;19.08;15.25;;;13.50;48.10;;;;;;5114733;28;20515;-57
2022/01/13 10:37:56;;;;;;;25.15;16.70;;;13.60;46.50;;;;;;5114880;28;20011;-57
2022/01/13 10:40:29;;;;;;;23.73;16.60;;;12.40;49.50;;;;;;5114960;28;20087;-58
2022/01/13 10:45:28;;;;;;;23.80;16.67;;;12.40;51.20;;;;;;5113410;28;20076;-58
2022/01/13 10:47:56;;;;;;;25.65;16.52;;;13.00;50.20;;;;;;5114457;28;20038;-59
2022/01/13 10:50:28;;;;;;;28.70;18.52;;;12.90;49.10;;;;;;5116473;28;20012;-58
2022/01/13 10:52:55;;;;;;;23.90;17.48;;;12.60;50.30;;;;;;5115457;28;20110;-58
2022/01/13 10:55:23;;;;;;;29.02;16.58;;;13.20;50.30;;;;;;5113473;28;20016;-59
2022/01/13 10:57:50;;;;;;;33.20;16.85;;;13.90;48.80;;;;;;5114253;28;20092;-58
2022/01/13 11:00:24;;;;;;;22.65;15.80;;;14.50;46.90;;;;;;5114833;28;20027;-57
2022/01/13 11:03:05;;;;;;;27.98;17.55;;;15.30;45.10;;;;;;5114877;28;20020;-59
2022/01/13 11:05:32;;;;;;;;;;;15.00;43.70;;;;;;5115704;28;20015;-59
2022/01/13 11:07:59;;;;;;;26.17;18.17;;;13.40;46.90;;;;;;5115281;28;20427;-59
2022/01/13 11:10:25;;;;;;;28.85;19.13;;;13.00;49.20;;;;;;5115131;28;20035;-58
2022/01/13 11:12:59;;;;;;;30.75;19.65;;;13.10;48.90;;;;;;5115310;28;20077;-59
2022/01/13 11:15:25;;;;;;;26.73;17.83;;;13.20;48.50;;;;;;5114536;28;20610;-59
2022/01/13 11:17:56;;;;;;;28.40;18.50;;;12.10;51.70;;;;;;5114376;28;20020;-59
2022/01/13 11:20:22;;;;;;;25.63;17.52;;;12.50;50.50;;;;;;5113234;28;20084;-59
2022/01/13 11:22:49;;;;;;;26.55;17.80;;;12.40;51.20;;;;;;5114500;28;20073;-58
2022/01/13 11:25:17;;;;;;;26.52;17.55;;;12.90;50.50;;;;;;5114388;28;20113;-59
2022/01/13 11:27:43;;;;;;;26.95;18.20;;;13.10;49.90;;;;;;5114666;28;20043;-58
2022/01/13 11:30:11;;;;;;;23.52;18.10;;;13.00;48.70;;;;;;5113129;28;20149;-58
2022/01/13 11:32:39;;;;;;;27.35;18.70;;;12.10;51.80;;;;;;5114344;28;20106;-58
2022/01/13 11:35:05;;;;;;;23.58;17.17;;;12.00;52.10;;;;;;5114110;28;20022;-58
2022/01/13 11:37:31;;;;;;;28.17;18.08;;;12.20;52.50;;;;;;5095263;28;20055;-58
2022/01/13 11:39:57;;;;;;;24.55;16.65;;;13.20;50.50;;;;;;5112574;28;20019;-59
2022/01/13 11:42:23;;;;;;;24.95;16.02;;;13.60;48.90;;;;;;5112403;28;20024;-59
2022/01/13 11:45:11;;;;;;;25.48;15.88;;;14.20;47.20;;;;;;5112201;28;20012;-60
2022/01/13 11:47:38;;;;;;;27.95;16.95;;;14.40;46.60;;;;;;5113502;27;20092;-57
2022/01/13 11:50:30;;;;;;;19.90;15.55;;;14.70;46.30;;;;;;5112489;28;20558;-58
2022/01/13 11:52:56;;;;;;;24.58;14.75;;;15.40;44.80;;;;;;5112377;28;20505;-57
2022/01/13 11:55:35;;;;;;;18.45;13.77;;;15.50;44.10;;;;;;5095438;28;20015;-57
2022/01/13 11:58:14;;;;;;;19.50;13.85;;;16.10;42.70;;;;;;5112854;28;20027;-58
2022/01/13 12:00:41;;;;;;;19.52;13.15;;;16.50;42.20;;;;;;5113367;28;20020;-58
2022/01/13 12:03:29;;;;;;;15.43;11.85;;;16.90;41.10;;;;;;5113763;28;20124;-57
2022/01/13 12:05:55;;;;;;;20.13;12.90;;;17.30;40.20;;;;;;5095437;28;20526;-58
2022/01/13 12:08:42;;;;;;;21.98;12.90;;;17.60;39.60;;;;;;5113609;28;20039;-58
2022/01/13 12:11:09;;;;;;;19.10;11.85;;;17.90;39.10;;;;;;5113183;28;20080;-59
2022/01/13 12:13:39;;;;;;;15.35;11.63;;;18.00;38.70;;;;;;5113099;28;20529;-58
2022/01/13 12:16:07;;;;;;;14.52;11.00;;;18.20;38.30;;;;;;5113410;28;20097;-59
2022/01/13 12:19:09;;;;;;;17.48;11.80;;;18.30;38.00;;;;;;5113177;28;20035;-59
2022/01/13 12:21:39;;;;;;;14.77;11.60;;;18.40;37.80;;;;;;5113240;28;20023;-58
2022/01/13 12:24:06;;;;;;;15.85;11.20;;;18.60;37.60;;;;;;5112895;28;20102;-57
2022/01/13 12:26:46;;;;;;;14.07;11.10;;;18.70;37.30;;;;;;5113573;28;20229;-58
2022/01/13 12:29:28;;;;;;;15.57;11.27;;;18.70;37.30;;;;;;5113412;28;20016;-59
2022/01/13 12:31:59;;;;;;;17.65;11.57;;;18.80;37.10;;;;;;5113143;28;20045;-58
2022/01/13 12:34:33;;;;;;;;;;;18.90;37.00;;;;;;5113143;28;20120;-58
2022/01/13 12:37:00;;;;;;;15.50;11.75;;;19.00;36.80;;;;;;5112249;28;19994;-58
2022/01/13 12:39:33;;;;;;;16.65;11.38;;;19.00;36.70;;;;;;5110045;28;20004;-57
2022/01/13 12:42:03;;;;;;;16.38;12.23;;;19.10;36.70;;;;;;5111842;28;20035;-60
2022/01/13 12:47:14;;;;;;;24.88;16.88;;;17.60;39.50;;;;;;5112786;28;20034;-59
2022/01/13 12:49:41;;;;;;;24.75;18.20;;;16.20;42.70;;;;;;5112118;28;20008;-60
2022/01/13 12:52:08;;;;;;;30.80;19.15;;;16.10;43.50;;;;;;5111721;28;20054;-59
2022/01/13 12:54:44;;;;;;;30.17;19.60;;;15.10;45.30;;;;;;5112486;28;20027;-57
2022/01/13 12:57:11;;;;;;;31.08;19.13;;;15.30;45.30;;;;;;5111570;28;20019;-57
2022/01/13 12:59:37;;;;;;;27.83;19.83;;;14.40;48.30;;;;;;5094927;28;20465;-59
2022/01/13 13:02:03;;;;;;;32.42;19.48;;;15.10;47.40;;;;;;5111823;28;20026;-60
2022/01/13 13:04:33;;;;;;;27.02;18.85;;;15.00;46.90;;;;;;5113425;28;20016;-59
2022/01/13 13:06:59;;;;;;;27.52;19.60;;;14.50;48.30;;;;;;5094882;28;20019;-57
2022/01/13 13:09:27;;;;;;;24.88;17.58;;;15.00;47.80;;;;;;5112649;28;20048;-57